createdAt,value
2023-02-12T00:01:20.955Z,7.72
2023-02-12T00:06:52.707Z,7.72
2023-02-12T00:12:24.894Z,7.72
2023-02-12T00:18:00.769Z,7.7
2023-02-12T00:23:32.330Z,7.69
2023-02-12T00:29:04.031Z,7.67
2023-02-12T00:34:35.983Z,7.69
2023-02-12T00:40:07.466Z,7.68
2023-02-12T00:45:39.204Z,7.68
2023-02-12T00:51:11.324Z,7.7
2023-02-12T00:56:42.833Z,7.71
2023-02-12T01:02:14.661Z,7.73
2023-02-12T01:07:46.134Z,7.74
2023-02-12T01:13:18.085Z,7.75
2023-02-12T01:18:55.898Z,7.72
2023-02-12T01:24:26.242Z,7.72
2023-02-12T01:29:57.424Z,7.74
2023-02-12T01:35:29.151Z,7.75
2023-02-12T01:41:00.967Z,7.73
2023-02-12T01:46:32.978Z,7.79
2023-02-12T01:52:04.367Z,7.71
2023-02-12T01:57:36.229Z,7.68
2023-02-12T02:03:07.743Z,7.43
2023-02-12T02:08:39.595Z,7.56
2023-02-12T02:14:11.363Z,7.53
2023-02-12T02:19:49.305Z,7.55
2023-02-12T02:25:21.245Z,7.52
2023-02-12T02:30:52.737Z,7.51
2023-02-12T02:36:26.068Z,7.49
2023-02-12T02:41:56.401Z,7.49
2023-02-12T02:47:27.923Z,7.49
2023-02-12T02:52:59.796Z,7.47
2023-02-12T02:58:31.579Z,7.48
2023-02-12T03:04:03.090Z,7.48
2023-02-12T03:09:34.817Z,7.48
2023-02-12T03:15:06.986Z,7.47
2023-02-12T03:20:42.702Z,7.45
2023-02-12T03:26:14.452Z,7.45
2023-02-12T03:31:47.399Z,7.47
2023-02-12T03:37:18.089Z,7.48
2023-02-12T03:42:49.649Z,7.48
2023-02-12T03:48:21.357Z,7.49
2023-02-12T03:53:53.324Z,7.51
2023-02-12T03:59:25.059Z,7.51
2023-02-12T04:04:56.773Z,7.53
2023-02-12T04:10:28.473Z,7.47
2023-02-12T04:15:59.952Z,7.38
2023-02-12T04:21:38.118Z,7.32
2023-02-12T04:27:10.053Z,7.23
2023-02-12T04:32:41.506Z,7.22
2023-02-12T04:38:13.255Z,7.17
2023-02-12T04:43:45.223Z,6.99
2023-02-12T04:49:17.696Z,6.71
2023-02-12T04:54:48.361Z,6.92
2023-02-12T05:00:20.285Z,6.72
2023-02-12T05:05:51.869Z,6.48
2023-02-12T05:11:23.761Z,6.5
2023-02-12T05:16:55.302Z,6.64
2023-02-12T05:22:34.065Z,6.75
2023-02-12T05:28:05.175Z,6.65
2023-02-12T05:33:36.922Z,6.9
2023-02-12T05:39:08.578Z,6.98
2023-02-12T05:44:40.397Z,7.07
2023-02-12T05:50:12.291Z,6.83
2023-02-12T05:55:43.820Z,6.9
2023-02-12T06:01:15.842Z,7.06
2023-02-12T06:06:47.254Z,7.03
2023-02-12T06:12:18.953Z,7.04
2023-02-12T06:17:50.872Z,7.02
2023-02-12T06:23:27.263Z,7.02
2023-02-12T06:28:58.776Z,7.08
2023-02-12T06:34:30.648Z,7.04
2023-02-12T06:40:02.785Z,6.92
2023-02-12T06:45:33.873Z,6.97
2023-02-12T06:51:05.747Z,6.9
2023-02-12T06:56:37.140Z,6.72
2023-02-12T07:02:10.115Z,6.75
2023-02-12T07:07:40.838Z,6.86
2023-02-12T07:13:12.546Z,6.93
2023-02-12T07:18:44.082Z,7.04
2023-02-12T07:24:20.202Z,6.97
2023-02-12T07:29:52.174Z,6.99
2023-02-12T07:35:23.938Z,7.03
2023-02-12T07:40:55.638Z,6.81
2023-02-12T07:46:27.091Z,7.02
2023-02-12T07:51:58.822Z,7.01
2023-02-12T07:57:30.830Z,6.9
2023-02-12T08:03:02.687Z,6.98
2023-02-12T08:08:34.776Z,7.2
2023-02-12T08:14:05.959Z,6.93
2023-02-12T08:19:37.680Z,7.05
2023-02-12T08:25:15.791Z,7.08
2023-02-12T08:30:47.802Z,7.45
2023-02-12T08:36:19.288Z,7.49
2023-02-12T08:41:51.352Z,7.47
2023-02-12T08:47:23.034Z,7.62
2023-02-12T08:52:54.752Z,7.5
2023-02-12T08:58:26.407Z,7.51
2023-02-12T09:03:58.164Z,7.49
2023-02-12T09:09:29.884Z,7.66
2023-02-12T09:15:02.628Z,7.52
2023-02-12T09:20:33.382Z,7.56
2023-02-12T09:26:11.153Z,7.55
2023-02-12T09:31:43.047Z,7.73
2023-02-12T09:37:14.983Z,7.83
2023-02-12T09:42:46.588Z,7.99
2023-02-12T09:48:18.030Z,8.05
2023-02-12T09:53:50.015Z,7.95
2023-02-12T09:59:21.713Z,8.31
2023-02-12T10:05:00.919Z,8.27
2023-02-12T10:10:24.992Z,8.06
2023-02-12T10:15:56.996Z,8.33
2023-02-12T10:21:28.665Z,8.35
2023-02-12T10:27:04.572Z,8.49
2023-02-12T10:32:36.279Z,8.68
2023-02-12T10:38:08.112Z,8.99
2023-02-12T10:43:40.034Z,8.78
2023-02-12T10:49:11.602Z,8.48
2023-02-12T10:54:43.309Z,8.73
2023-02-12T11:00:15.018Z,8.95
2023-02-12T11:05:47.129Z,9.22
2023-02-12T11:11:18.865Z,8.75
2023-02-12T11:16:50.482Z,9.06
2023-02-12T11:22:22.272Z,9.12
2023-02-12T11:28:00.214Z,9.2
2023-02-12T11:33:33.063Z,9.19
2023-02-12T11:39:03.763Z,9.21
2023-02-12T11:44:35.268Z,9.37
2023-02-12T11:50:07.270Z,9.54
2023-02-12T11:55:38.684Z,9.59
2023-02-12T12:01:10.678Z,9.66
2023-02-12T12:06:42.408Z,9.41
2023-02-12T12:12:14.224Z,10.05
2023-02-12T12:17:45.855Z,9.54
2023-02-12T12:23:17.576Z,9.62
2023-02-12T12:28:55.490Z,9.95
2023-02-12T12:34:27.234Z,10.25
2023-02-12T12:39:59.043Z,10.32
2023-02-12T12:45:30.707Z,10.23
2023-02-12T12:51:02.800Z,10.41
2023-02-12T12:56:34.122Z,10.39
2023-02-12T13:02:06.007Z,10.76
2023-02-12T13:07:37.783Z,10.87
2023-02-12T13:13:09.686Z,11.09
2023-02-12T13:18:41.187Z,11.16
2023-02-12T13:24:12.973Z,10.81
2023-02-12T13:29:51.500Z,10.81
2023-02-12T13:35:22.852Z,10.89
2023-02-12T13:40:54.866Z,10.83
2023-02-12T13:46:26.354Z,11.04
2023-02-12T13:51:58.058Z,10.94
2023-02-12T13:57:29.742Z,10.9
2023-02-12T14:03:01.444Z,10.76
2023-02-12T14:08:33.425Z,10.61
2023-02-12T14:14:04.947Z,10.83
2023-02-12T14:19:36.651Z,10.52
2023-02-12T14:25:08.543Z,10.56
2023-02-12T14:30:44.452Z,10.62
2023-02-12T14:36:16.165Z,10.51
2023-02-12T14:41:47.939Z,10.52
2023-02-12T14:47:20.011Z,10.45
2023-02-12T14:52:51.635Z,10.5
2023-02-12T14:58:23.134Z,10.49
2023-02-12T15:03:54.910Z,10.45
2023-02-12T15:09:27.378Z,10.65
2023-02-12T15:14:58.514Z,10.62
2023-02-12T15:20:30.249Z,10.72
2023-02-12T15:26:01.751Z,10.49
2023-02-12T15:31:38.241Z,10.56
2023-02-12T15:37:09.702Z,10.62
2023-02-12T15:42:41.426Z,10.54
2023-02-12T15:48:13.428Z,10.48
2023-02-12T15:53:45.235Z,10.52
2023-02-12T15:59:16.641Z,10.46
2023-02-12T16:04:48.714Z,10.5
2023-02-12T16:10:20.505Z,10.45
2023-02-12T16:15:52.076Z,10.24
2023-02-12T16:21:23.524Z,10.25
2023-02-12T16:26:55.962Z,10.42
2023-02-12T16:32:31.416Z,10.33
2023-02-12T16:38:03.461Z,10.18
2023-02-12T16:43:34.847Z,10.03
2023-02-12T16:49:06.601Z,9.87
2023-02-12T16:54:39.095Z,9.51
2023-02-12T17:00:09.979Z,9.52
2023-02-12T17:05:41.944Z,9.3
2023-02-12T17:11:13.413Z,9.0
2023-02-12T17:16:45.133Z,8.86
2023-02-12T17:22:17.100Z,9.05
2023-02-12T17:27:48.593Z,9.13
2023-02-12T17:33:26.978Z,8.96
2023-02-12T17:38:58.842Z,9.05
2023-02-12T17:44:30.185Z,9.15
2023-02-12T17:50:01.987Z,9.13
2023-02-12T17:55:34.234Z,8.95
2023-02-12T18:01:05.413Z,8.71
2023-02-12T18:06:37.336Z,8.5
2023-02-12T18:12:09.516Z,8.4
2023-02-12T18:17:40.873Z,8.28
2023-02-12T18:23:12.387Z,8.14
2023-02-12T18:28:44.351Z,8.04
2023-02-12T18:34:22.184Z,7.96
2023-02-12T18:39:53.925Z,7.84
2023-02-12T18:45:25.612Z,7.7
2023-02-12T18:50:57.895Z,7.66
2023-02-12T18:56:29.450Z,7.56
2023-02-12T19:02:00.879Z,7.46
2023-02-12T19:07:33.114Z,7.36
2023-02-12T19:13:04.558Z,7.33
2023-02-12T19:18:36.666Z,7.23
2023-02-12T19:24:08.586Z,7.07
2023-02-12T19:29:39.636Z,7.04
2023-02-12T19:35:15.565Z,6.98
2023-02-12T19:40:47.270Z,6.89
2023-02-12T19:46:19.212Z,6.77
2023-02-12T19:51:50.760Z,6.74
2023-02-12T19:57:22.789Z,6.81
2023-02-12T20:02:54.458Z,6.79
2023-02-12T20:08:26.316Z,6.75
2023-02-12T20:13:57.854Z,6.7
2023-02-12T20:19:29.431Z,6.6
2023-02-12T20:25:01.531Z,6.55
2023-02-12T20:30:32.773Z,6.35
2023-02-12T20:36:09.024Z,6.38
2023-02-12T20:41:40.715Z,6.29
2023-02-12T20:47:12.717Z,6.23
2023-02-12T20:52:44.177Z,6.15
2023-02-12T20:58:16.161Z,6.13
2023-02-12T21:03:47.590Z,6.06
2023-02-12T21:09:19.356Z,6.03
2023-02-12T21:14:51.641Z,5.96
2023-02-12T21:20:23.078Z,5.95
2023-02-12T21:25:54.611Z,5.85
2023-02-12T21:31:26.924Z,5.71
2023-02-12T21:37:04.925Z,5.67
2023-02-12T21:42:36.493Z,5.63
2023-02-12T21:48:07.901Z,5.51
2023-02-12T21:53:39.808Z,5.5
2023-02-12T21:59:11.783Z,5.47
2023-02-12T22:04:43.312Z,5.36
2023-02-12T22:10:14.966Z,5.34
2023-02-12T22:15:46.635Z,5.28
2023-02-12T22:21:18.776Z,5.1
2023-02-12T22:26:50.136Z,4.8
2023-02-12T22:32:21.947Z,5.0
2023-02-12T22:38:01.073Z,4.86
2023-02-12T22:43:32.004Z,4.87
2023-02-12T22:49:03.671Z,4.79
2023-02-12T22:54:35.397Z,4.91
2023-02-12T23:00:06.884Z,4.95
2023-02-12T23:05:38.841Z,4.69
2023-02-12T23:11:10.657Z,4.93
2023-02-12T23:16:43.454Z,4.93
2023-02-12T23:22:13.827Z,4.87
2023-02-12T23:27:45.503Z,4.63
2023-02-12T23:33:17.465Z,4.63
2023-02-12T23:38:55.413Z,4.65
2023-02-12T23:44:27.094Z,4.41
2023-02-12T23:49:59.058Z,4.43
2023-02-12T23:55:31.074Z,4.45
